Nahant, Massachusetts
Current Conditions -  °F | °C
As of 4:54 PM on Friday 24 Oct 2014 (Local Time) from KBOS Reporting Station
Overcast Overcast  
Wind Chill: 51°   Ceiling: 2700
Heat Index: 51°   Visibility: 10mi
Dew Point: 43°   Wind: 13mph
Humidity: 74%   Direction: 310°NW
Pressure: 29.69"   Gusts: NA
Location:  42.43°N, 70.92°W
Report Text: KBOS 242054Z 31011KT 10SM FEW016 BKN027 OVC034 11/06 A2969 RMK AO2 SLP055 T01060061 53003
Loading
Personal Weather Stations






























Interactive Weather Map
Tropical Storm Tracking
New forecast layout! Learn more

10-Day Weather Forecast

Advertisements
Track Severe Weather on mobile